Terminal Aerodrome Forecast
Issued by NWS Mt. Holly, NJ

Home | Current Version | Previous Version | Text Only | Print | Product List | Glossary On
Versions: 1 2 3 4 5 6 7 8 9 10 11 12 13 14 15 16 17 18 19 20 21
131
FTUS41 KPHI 301723
TAFACY
TAF
KACY 301723Z 3018/3118 16010KT P6SM BKN035
      TEMPO 3021/3101 5SM -TSRA BR OVC025CB
     FM310200 13006KT 5SM SHRA BR OVC025
     FM310600 12006KT 3SM SHRA BR OVC015
     FM311500 18006KT P6SM BKN035=

USA.gov is the U.S. government's official web portal to all federal, state and local government web resources and services.